createdAt,value
2017-12-04T00:00:51.244Z,20.30
2017-12-04T00:03:19.259Z,21.13
2017-12-04T00:05:47.542Z,18.37
2017-12-04T00:08:16.618Z,19.53
2017-12-04T00:10:44.911Z,19.77
2017-12-04T00:13:13.196Z,18.97
2017-12-04T00:15:41.429Z,18.50
2017-12-04T00:18:11.424Z,18.83
2017-12-04T00:20:39.724Z,18.90
2017-12-04T00:23:07.999Z,18.83
2017-12-04T00:25:37.014Z,20.73
2017-12-04T00:28:05.258Z,21.33
2017-12-04T00:30:34.275Z,19.80
2017-12-04T00:33:02.531Z,20.57
2017-12-04T00:35:31.559Z,19.73
2017-12-04T00:37:59.831Z,19.80
2017-12-04T00:40:28.102Z,20.77
2017-12-04T00:42:56.346Z,20.27
2017-12-04T00:45:24.602Z,16.63
2017-12-04T00:47:52.875Z,17.50
2017-12-04T00:50:21.146Z,18.37
2017-12-04T00:52:49.388Z,17.80
2017-12-04T00:55:17.651Z,17.57
2017-12-04T00:57:46.686Z,18.80
2017-12-04T01:00:14.957Z,19.20
2017-12-04T01:02:43.274Z,17.53
2017-12-04T01:05:11.564Z,18.47
2017-12-04T01:07:40.630Z,21.97
2017-12-04T01:10:09.882Z,19.50
2017-12-04T01:12:38.166Z,24.47
2017-12-04T01:15:06.453Z,21.17
2017-12-04T01:17:34.721Z,19.53
2017-12-04T01:20:02.999Z,21.00
2017-12-04T01:22:32.082Z,20.77
2017-12-04T01:25:00.331Z,22.77
2017-12-04T01:27:28.608Z,23.03
2017-12-04T01:29:56.857Z,20.77
2017-12-04T01:32:25.095Z,20.00
2017-12-04T01:34:53.346Z,19.60
2017-12-04T01:37:22.795Z,20.70
2017-12-04T01:39:51.050Z,19.10
2017-12-04T01:42:19.322Z,20.00
2017-12-04T01:44:47.597Z,20.53
2017-12-04T01:47:15.870Z,20.07
2017-12-04T01:49:44.106Z,21.63
2017-12-04T01:52:12.388Z,22.00
2017-12-04T01:54:40.615Z,21.13
2017-12-04T01:57:08.887Z,23.87
2017-12-04T01:59:37.876Z,22.00
2017-12-04T02:02:06.943Z,20.63
2017-12-04T02:04:35.186Z,22.50
2017-12-04T02:07:03.481Z,23.67
2017-12-04T02:09:31.706Z,23.87
2017-12-04T02:12:00.733Z,24.97
2017-12-04T02:14:30.641Z,24.97
2017-12-04T02:16:58.886Z,25.17
2017-12-04T02:19:27.931Z,26.97
2017-12-04T02:21:56.171Z,24.60
2017-12-04T02:24:24.444Z,28.87
2017-12-04T02:26:52.739Z,26.20
2017-12-04T02:29:21.005Z,29.57
2017-12-04T02:31:49.244Z,26.70
2017-12-04T02:34:18.280Z,26.70
2017-12-04T02:36:47.279Z,29.57
2017-12-04T02:39:15.530Z,27.73
2017-12-04T02:41:44.541Z,30.70
2017-12-04T02:44:12.828Z,28.17
2017-12-04T02:46:41.082Z,28.70
2017-12-04T02:49:10.091Z,28.10
2017-12-04T02:51:38.357Z,29.00
2017-12-04T02:54:07.371Z,31.13
2017-12-04T02:56:35.639Z,29.93
2017-12-04T02:59:03.926Z,28.63
2017-12-04T03:01:32.198Z,27.70
2017-12-04T03:04:01.185Z,29.13
2017-12-04T03:06:29.472Z,30.13
2017-12-04T03:08:57.753Z,26.80
2017-12-04T03:11:26.769Z,26.30
2017-12-04T03:13:55.013Z,26.90
2017-12-04T03:16:23.861Z,29.03
2017-12-04T03:18:52.914Z,27.50
2017-12-04T03:21:21.155Z,29.13
2017-12-04T03:23:50.194Z,27.20
2017-12-04T03:26:18.460Z,26.90
2017-12-04T03:28:46.751Z,25.20
2017-12-04T03:31:14.999Z,27.13
2017-12-04T03:33:44.006Z,26.20
2017-12-04T03:36:12.282Z,29.70
2017-12-04T03:38:40.621Z,24.97
2017-12-04T03:41:08.899Z,29.20
2017-12-04T03:43:37.215Z,25.93
2017-12-04T03:46:05.518Z,29.13
2017-12-04T03:48:33.781Z,32.57
2017-12-04T03:51:02.029Z,28.37
2017-12-04T03:53:31.031Z,29.30
2017-12-04T03:56:00.063Z,27.80
2017-12-04T03:58:28.315Z,30.60
2017-12-04T04:00:56.560Z,26.53
2017-12-04T04:03:24.828Z,26.60
2017-12-04T04:05:53.066Z,24.93
2017-12-04T04:08:21.310Z,27.00
2017-12-04T04:10:49.562Z,28.10
2017-12-04T04:13:17.799Z,29.20
2017-12-04T04:15:46.082Z,26.37
2017-12-04T04:18:14.319Z,26.80
2017-12-04T04:20:43.368Z,25.00
2017-12-04T04:23:11.631Z,29.80
2017-12-04T04:25:39.887Z,26.20
2017-12-04T04:28:08.152Z,26.57
2017-12-04T04:30:37.195Z,29.50
2017-12-04T04:33:05.441Z,25.97
2017-12-04T04:35:33.678Z,25.50
2017-12-04T04:38:01.946Z,23.87
2017-12-04T04:40:30.182Z,27.60
2017-12-04T04:42:58.460Z,25.93
2017-12-04T04:45:27.525Z,24.80
2017-12-04T04:47:56.553Z,27.00
2017-12-04T04:50:24.823Z,26.67
2017-12-04T04:52:53.141Z,27.47
2017-12-04T04:55:21.362Z,30.10
2017-12-04T04:57:49.624Z,27.23
2017-12-04T05:00:17.956Z,28.93
2017-12-04T05:02:46.221Z,25.53
2017-12-04T05:05:14.515Z,26.67
2017-12-04T05:07:42.805Z,29.60
2017-12-04T05:10:11.883Z,27.17
2017-12-04T05:12:40.127Z,25.70
2017-12-04T05:15:08.377Z,30.50
2017-12-04T05:17:37.444Z,27.90
2017-12-04T05:20:05.691Z,27.80
2017-12-04T05:22:34.602Z,26.23
2017-12-04T05:25:02.878Z,24.63
2017-12-04T05:27:31.231Z,28.20
2017-12-04T05:29:59.607Z,27.90
2017-12-04T05:32:27.810Z,26.90
2017-12-04T05:34:56.073Z,27.63
2017-12-04T05:37:24.372Z,27.17
2017-12-04T05:39:52.634Z,27.30
2017-12-04T05:42:20.863Z,26.33
2017-12-04T05:44:49.933Z,25.80
2017-12-04T05:47:18.874Z,27.33
2017-12-04T05:49:47.886Z,29.10
2017-12-04T05:52:16.147Z,27.87
2017-12-04T05:54:45.148Z,30.93
2017-12-04T05:57:13.399Z,29.43
2017-12-04T05:59:42.490Z,31.67
2017-12-04T06:02:11.531Z,30.10
2017-12-04T06:04:39.824Z,32.03
2017-12-04T06:07:08.093Z,32.00
2017-12-04T06:09:36.358Z,32.00
2017-12-04T06:12:04.646Z,32.40
2017-12-04T06:14:32.940Z,31.73
2017-12-04T06:17:01.258Z,32.90
2017-12-04T06:19:30.333Z,30.60
2017-12-04T06:21:58.592Z,32.63
2017-12-04T06:24:26.849Z,31.10
2017-12-04T06:26:55.132Z,30.23
2017-12-04T06:29:23.419Z,27.60
2017-12-04T06:31:51.748Z,29.97
2017-12-04T06:34:20.886Z,27.97
2017-12-04T06:36:49.143Z,29.17
2017-12-04T06:39:17.480Z,27.33
2017-12-04T06:41:45.759Z,29.07
2017-12-04T06:44:14.057Z,30.23
2017-12-04T06:46:42.363Z,34.60
2017-12-04T06:49:11.552Z,35.10
2017-12-04T06:51:39.866Z,28.47
2017-12-04T06:54:08.152Z,34.27
2017-12-04T06:56:36.479Z,33.83
2017-12-04T06:59:05.484Z,30.40
2017-12-04T07:01:34.564Z,33.40
2017-12-04T07:04:03.647Z,32.40
2017-12-04T07:06:31.943Z,30.73
2017-12-04T07:09:00.248Z,32.40
2017-12-04T07:11:28.558Z,35.23
2017-12-04T07:13:56.803Z,32.50
2017-12-04T07:16:25.080Z,29.10
2017-12-04T07:18:53.508Z,31.03
2017-12-04T07:21:21.846Z,31.03
2017-12-04T07:23:50.071Z,32.27
2017-12-04T07:26:19.171Z,32.00
2017-12-04T07:28:48.228Z,33.00
2017-12-04T07:31:16.479Z,33.03
2017-12-04T07:33:45.164Z,32.47
2017-12-04T07:36:13.419Z,33.07
2017-12-04T07:38:42.599Z,32.33
2017-12-04T07:41:11.693Z,33.33
2017-12-04T07:43:39.975Z,33.67
2017-12-04T07:46:08.292Z,26.00
2017-12-04T07:48:37.318Z,31.97
2017-12-04T07:51:05.578Z,29.30
2017-12-04T07:53:33.883Z,33.47
2017-12-04T07:56:02.118Z,33.67
2017-12-04T07:58:30.429Z,32.67
2017-12-04T08:00:59.248Z,30.30
2017-12-04T08:03:27.534Z,28.83
2017-12-04T08:05:56.627Z,32.27
2017-12-04T08:08:25.648Z,30.97
2017-12-04T08:10:53.911Z,28.13
2017-12-04T08:13:22.247Z,27.43
2017-12-04T08:15:50.728Z,30.43
2017-12-04T08:18:19.025Z,26.07
2017-12-04T08:20:47.287Z,25.97
2017-12-04T08:23:15.787Z,29.20
2017-12-04T08:25:44.851Z,28.00
2017-12-04T08:28:13.303Z,30.87
2017-12-04T08:30:41.646Z,27.23
2017-12-04T08:33:09.919Z,29.40
2017-12-04T08:35:39.058Z,28.10
2017-12-04T08:38:07.432Z,31.87
2017-12-04T08:40:35.663Z,29.93
2017-12-04T08:43:03.915Z,26.37
2017-12-04T08:45:32.282Z,27.87
2017-12-04T08:48:02.635Z,29.10
2017-12-04T08:50:34.416Z,25.70
2017-12-04T08:53:05.399Z,28.77
2017-12-04T08:55:37.295Z,27.50
2017-12-04T08:58:07.788Z,29.27
2017-12-04T09:00:36.330Z,29.23
2017-12-04T09:03:07.208Z,30.07
2017-12-04T09:05:36.239Z,30.10
2017-12-04T09:08:05.270Z,28.47
2017-12-04T09:10:36.491Z,27.70
2017-12-04T09:13:07.246Z,25.37
2017-12-04T09:15:37.142Z,27.70
2017-12-04T09:18:09.825Z,29.37
2017-12-04T09:20:38.096Z,26.27
2017-12-04T09:23:10.655Z,28.10
2017-12-04T09:25:41.610Z,25.40
2017-12-04T09:28:13.692Z,26.70
2017-12-04T09:30:42.065Z,24.77
2017-12-04T09:33:12.812Z,25.83
2017-12-04T09:35:44.495Z,24.67
2017-12-04T09:38:15.957Z,25.63
2017-12-04T09:40:45.316Z,47.10
2017-12-04T09:43:13.794Z,28.57
2017-12-04T09:45:42.139Z,25.93
2017-12-04T09:48:10.409Z,28.17
2017-12-04T09:50:38.758Z,26.50
2017-12-04T09:53:07.825Z,25.73
2017-12-04T09:55:36.193Z,23.97
2017-12-04T09:58:05.595Z,28.13
2017-12-04T10:00:34.814Z,27.17
2017-12-04T10:03:03.255Z,23.30
2017-12-04T10:05:33.225Z,27.63
2017-12-04T10:08:02.396Z,25.60
2017-12-04T10:10:31.838Z,27.57
2017-12-04T10:13:01.223Z,27.60
2017-12-04T10:15:30.419Z,24.00
2017-12-04T10:18:00.567Z,23.60
2017-12-04T10:20:30.359Z,24.60
2017-12-04T10:22:59.504Z,22.47
2017-12-04T10:25:28.523Z,20.10
2017-12-04T10:28:04.254Z,19.03
2017-12-04T10:30:36.226Z,22.40
2017-12-04T10:33:08.579Z,21.77
2017-12-04T10:35:41.846Z,24.63
2017-12-04T10:38:12.607Z,21.07
2017-12-04T10:40:42.599Z,25.50
2017-12-04T10:43:12.214Z,23.03
2017-12-04T10:45:41.647Z,21.13
2017-12-04T10:48:12.285Z,23.80
2017-12-04T10:50:42.140Z,24.07
2017-12-04T10:53:12.274Z,24.90
2017-12-04T10:55:42.092Z,25.33
2017-12-04T10:58:12.479Z,23.87
2017-12-04T11:00:43.656Z,25.60
2017-12-04T11:03:13.784Z,26.47
2017-12-04T11:05:42.838Z,25.47
2017-12-04T11:08:11.112Z,22.97
2017-12-04T11:10:40.020Z,22.97
2017-12-04T11:13:08.320Z,22.53
2017-12-04T11:15:37.334Z,32.40
2017-12-04T11:18:05.916Z,19.50
2017-12-04T11:20:35.038Z,18.53
2017-12-04T11:23:04.125Z,21.43
2017-12-04T11:25:34.539Z,20.37
2017-12-04T11:28:06.640Z,18.90
2017-12-04T11:30:36.999Z,18.90
2017-12-04T11:33:06.270Z,16.93
2017-12-04T11:35:36.962Z,21.10
2017-12-04T11:38:06.321Z,19.30
2017-12-04T11:40:35.353Z,20.13
2017-12-04T11:43:03.609Z,20.60
2017-12-04T11:45:35.067Z,25.10
2017-12-04T11:48:03.437Z,20.47
2017-12-04T11:50:31.700Z,24.90
2017-12-04T11:52:59.998Z,23.00
2017-12-04T11:55:28.363Z,24.00
2017-12-04T11:57:57.010Z,22.60
2017-12-04T12:00:25.835Z,19.70
2017-12-04T12:03:01.062Z,24.57
2017-12-04T12:05:34.662Z,40.93
2017-12-04T12:08:03.595Z,22.00
2017-12-04T12:10:31.873Z,21.20
2017-12-04T12:13:00.223Z,18.37
2017-12-04T12:15:29.109Z,17.97
2017-12-04T12:17:57.411Z,19.37
2017-12-04T12:20:25.725Z,18.17
2017-12-04T12:22:54.914Z,18.83
2017-12-04T12:25:26.017Z,17.20
2017-12-04T12:27:54.937Z,15.50
2017-12-04T12:30:25.533Z,14.07
2017-12-04T12:32:54.691Z,12.33
2017-12-04T12:35:24.443Z,11.53
2017-12-04T12:37:52.804Z,10.63
2017-12-04T12:40:21.019Z,13.37
2017-12-04T12:42:49.280Z,10.50
2017-12-04T12:45:18.182Z,11.57
2017-12-04T12:47:47.474Z,11.90
2017-12-04T12:50:16.436Z,11.00
2017-12-04T12:52:44.723Z,12.60
2017-12-04T12:55:13.811Z,10.53
2017-12-04T12:57:43.300Z,10.50
2017-12-04T13:00:12.909Z,12.43
2017-12-04T13:02:41.962Z,11.63
2017-12-04T13:05:10.257Z,10.77
2017-12-04T13:07:39.888Z,11.13
2017-12-04T13:10:09.247Z,10.50
2017-12-04T13:12:39.431Z,14.00
2017-12-04T13:15:07.656Z,9.27
2017-12-04T13:17:36.786Z,10.27
2017-12-04T13:20:05.679Z,11.40
2017-12-04T13:22:34.709Z,10.40
2017-12-04T13:25:03.320Z,11.97
2017-12-04T13:27:33.490Z,10.80
2017-12-04T13:30:02.542Z,12.00
2017-12-04T13:32:42.681Z,12.10
2017-12-04T13:35:23.648Z,10.50
2017-12-04T13:37:54.342Z,9.87
2017-12-04T13:40:23.538Z,11.77
2017-12-04T13:42:53.287Z,11.53
2017-12-04T13:45:21.876Z,12.20
2017-12-04T13:47:51.422Z,10.80
2017-12-04T13:50:20.963Z,12.70
2017-12-04T13:52:50.017Z,11.10
2017-12-04T13:55:20.489Z,10.67
2017-12-04T13:57:49.703Z,9.77
2017-12-04T14:00:17.931Z,9.23
2017-12-04T14:02:48.354Z,9.37
2017-12-04T14:05:16.629Z,11.20
2017-12-04T14:07:45.770Z,10.50
2017-12-04T14:10:14.800Z,8.60
2017-12-04T14:12:44.228Z,14.70
2017-12-04T14:15:12.528Z,8.73
2017-12-04T14:17:41.387Z,10.00
2017-12-04T14:20:10.567Z,32.17
2017-12-04T14:22:38.853Z,16.60
2017-12-04T14:25:09.328Z,12.50
2017-12-04T14:27:37.589Z,64.90
2017-12-04T14:30:06.830Z,16.00
2017-12-04T14:32:35.491Z,20.53
2017-12-04T14:35:03.744Z,15.37
2017-12-04T14:37:32.174Z,18.90
2017-12-04T14:40:02.814Z,18.43
2017-12-04T14:42:32.505Z,13.20
2017-12-04T14:45:01.555Z,15.83
2017-12-04T14:47:32.259Z,15.30
2017-12-04T14:50:01.220Z,18.07
2017-12-04T14:52:31.190Z,25.97
2017-12-04T14:55:00.033Z,19.23
2017-12-04T14:57:29.123Z,20.77
2017-12-04T14:59:58.207Z,23.30
2017-12-04T15:02:26.634Z,14.13
2017-12-04T15:04:55.792Z,14.27
2017-12-04T15:07:24.082Z,15.10
2017-12-04T15:09:52.558Z,15.10
2017-12-04T15:12:21.287Z,14.83
2017-12-04T15:14:50.463Z,14.77
2017-12-04T15:17:19.619Z,16.37
2017-12-04T15:19:48.210Z,14.37
2017-12-04T15:22:16.588Z,15.37
2017-12-04T15:24:45.656Z,15.20
2017-12-04T15:27:13.938Z,16.63
2017-12-04T15:29:43.196Z,16.23
2017-12-04T15:32:12.428Z,16.60
2017-12-04T15:34:40.772Z,16.87
2017-12-04T15:37:09.109Z,16.43
2017-12-04T15:39:37.425Z,15.80
2017-12-04T15:42:06.213Z,16.67
2017-12-04T15:44:36.032Z,23.43
2017-12-04T15:47:07.073Z,18.20
2017-12-04T15:49:35.351Z,16.70
2017-12-04T15:52:03.644Z,19.30
2017-12-04T15:54:31.960Z,19.00
2017-12-04T15:57:01.209Z,20.83
2017-12-04T15:59:31.999Z,16.87
2017-12-04T16:02:01.108Z,17.23
2017-12-04T16:04:29.506Z,15.60
2017-12-04T16:06:59.532Z,18.23
2017-12-04T16:09:29.149Z,17.37
2017-12-04T16:11:59.029Z,15.90
2017-12-04T16:14:28.891Z,17.07
2017-12-04T16:16:57.582Z,15.87
2017-12-04T16:19:27.211Z,15.70
2017-12-04T16:21:56.046Z,14.40
2017-12-04T16:24:27.767Z,16.43
2017-12-04T16:26:58.440Z,11.53
2017-12-04T16:29:27.139Z,11.83
2017-12-04T16:31:56.901Z,13.77
2017-12-04T16:34:27.592Z,12.40
2017-12-04T16:36:57.290Z,14.00
2017-12-04T16:39:25.536Z,14.63
2017-12-04T16:41:54.744Z,13.70
2017-12-04T16:44:24.981Z,12.00
2017-12-04T16:46:54.166Z,14.10
2017-12-04T16:49:23.306Z,11.53
2017-12-04T16:51:51.596Z,11.67
2017-12-04T16:54:23.925Z,13.60
2017-12-04T16:56:54.957Z,13.70
2017-12-04T16:59:24.288Z,12.57
2017-12-04T17:01:52.735Z,13.80
2017-12-04T17:04:22.562Z,10.70
2017-12-04T17:06:53.247Z,12.27
2017-12-04T17:09:22.817Z,13.43
2017-12-04T17:11:52.101Z,12.93
2017-12-04T17:14:22.573Z,12.60
2017-12-04T17:16:51.684Z,11.03
2017-12-04T17:19:20.749Z,11.60
2017-12-04T17:21:50.017Z,11.97
2017-12-04T17:24:19.303Z,14.10
2017-12-04T17:26:47.658Z,13.00
2017-12-04T17:29:16.992Z,13.60
2017-12-04T17:31:45.363Z,13.93
2017-12-04T17:34:13.778Z,11.80
2017-12-04T17:36:42.085Z,12.37
2017-12-04T17:39:11.304Z,16.47
2017-12-04T17:41:43.370Z,13.67
2017-12-04T17:44:17.327Z,14.07
2017-12-04T17:46:49.010Z,15.00
2017-12-04T17:49:20.315Z,15.50
2017-12-04T17:51:50.992Z,14.73
2017-12-04T17:54:20.692Z,14.03
2017-12-04T17:56:51.547Z,13.67
2017-12-04T17:59:21.973Z,16.53
2017-12-04T18:01:54.971Z,12.60
2017-12-04T18:04:23.370Z,15.03
2017-12-04T18:06:53.264Z,15.00
2017-12-04T18:09:22.643Z,14.50
2017-12-04T18:11:54.197Z,15.17
2017-12-04T18:14:23.777Z,16.40
2017-12-04T18:16:53.615Z,17.73
2017-12-04T18:19:24.396Z,17.67
2017-12-04T18:21:53.588Z,17.40
2017-12-04T18:24:21.930Z,16.60
2017-12-04T18:26:51.746Z,25.33
2017-12-04T18:29:20.125Z,17.57
2017-12-04T18:31:48.530Z,18.63
2017-12-04T18:34:17.610Z,16.40
2017-12-04T18:36:47.476Z,18.47
2017-12-04T18:39:16.008Z,17.03
2017-12-04T18:41:44.373Z,20.80
2017-12-04T18:44:12.696Z,20.40
2017-12-04T18:46:42.750Z,20.77
2017-12-04T18:49:11.774Z,21.50
2017-12-04T18:51:40.893Z,20.50
2017-12-04T18:54:09.951Z,19.57
2017-12-04T18:56:40.306Z,20.20
2017-12-04T18:59:08.750Z,18.80
2017-12-04T19:01:38.152Z,18.53
2017-12-04T19:04:06.588Z,20.63
2017-12-04T19:06:34.980Z,20.90
2017-12-04T19:09:04.511Z,19.00
2017-12-04T19:11:34.616Z,19.17
2017-12-04T19:14:02.935Z,19.23
2017-12-04T19:16:31.376Z,17.07
2017-12-04T19:19:01.135Z,19.00
2017-12-04T19:21:30.348Z,21.03
2017-12-04T19:24:00.209Z,20.17
2017-12-04T19:26:28.584Z,21.33
2017-12-04T19:28:57.898Z,18.83
2017-12-04T19:31:27.056Z,18.33
2017-12-04T19:33:57.473Z,18.73
2017-12-04T19:36:27.280Z,19.50
2017-12-04T19:38:55.963Z,18.50
2017-12-04T19:41:25.612Z,17.10
2017-12-04T19:43:55.606Z,16.97
2017-12-04T19:46:23.982Z,18.23
2017-12-04T19:48:52.495Z,12.53
2017-12-04T19:51:22.047Z,14.60
2017-12-04T19:53:56.898Z,14.57
2017-12-04T19:56:29.752Z,14.10
2017-12-04T19:59:01.494Z,11.90
2017-12-04T20:01:30.786Z,12.80
2017-12-04T20:03:59.917Z,13.10
2017-12-04T20:06:32.778Z,12.67
2017-12-04T20:09:01.173Z,10.90
2017-12-04T20:11:30.348Z,9.97
2017-12-04T20:13:59.055Z,12.77
2017-12-04T20:16:28.293Z,11.50
2017-12-04T20:18:57.591Z,11.77
2017-12-04T20:21:27.438Z,13.90
2017-12-04T20:23:55.777Z,13.47
2017-12-04T20:26:25.251Z,13.60
2017-12-04T20:28:54.624Z,16.40
2017-12-04T20:31:23.780Z,16.27
2017-12-04T20:33:52.165Z,13.90
2017-12-04T20:36:20.470Z,17.30
2017-12-04T20:38:49.695Z,14.90
2017-12-04T20:41:18.121Z,16.30
2017-12-04T20:43:46.394Z,13.60
2017-12-04T20:46:14.879Z,16.00
2017-12-04T20:48:43.996Z,13.60
2017-12-04T20:51:13.385Z,13.10
2017-12-04T20:53:42.709Z,15.57
2017-12-04T20:56:11.066Z,15.80
2017-12-04T20:58:40.246Z,13.73
2017-12-04T21:01:09.495Z,15.73
2017-12-04T21:03:38.577Z,13.53
2017-12-04T21:06:06.926Z,13.83
2017-12-04T21:08:48.121Z,13.30
2017-12-04T21:11:28.524Z,14.50
2017-12-04T21:14:09.884Z,13.90
2017-12-04T21:16:49.957Z,14.33
2017-12-04T21:19:18.414Z,14.30
2017-12-04T21:21:46.733Z,15.50
2017-12-04T21:24:15.136Z,15.10
2017-12-04T21:26:43.484Z,14.77
2017-12-04T21:29:11.769Z,14.60
2017-12-04T21:31:40.163Z,15.20
2017-12-04T21:34:09.308Z,15.73
2017-12-04T21:36:37.636Z,17.23
2017-12-04T21:39:06.036Z,15.03
2017-12-04T21:41:34.338Z,15.43
2017-12-04T21:44:04.546Z,15.67
2017-12-04T21:46:32.773Z,13.63
2017-12-04T21:49:01.111Z,14.60
2017-12-04T21:51:30.085Z,16.53
2017-12-04T21:53:59.241Z,14.10
2017-12-04T21:56:27.619Z,16.23
2017-12-04T21:58:56.061Z,16.53
2017-12-04T22:01:25.023Z,18.23
2017-12-04T22:03:53.330Z,17.40
2017-12-04T22:06:21.645Z,18.60
2017-12-04T22:08:50.015Z,18.77
2017-12-04T22:11:18.295Z,19.07
2017-12-04T22:13:46.659Z,23.13
2017-12-04T22:16:15.810Z,26.17
2017-12-04T22:18:44.161Z,26.37
2017-12-04T22:21:12.506Z,23.27
2017-12-04T22:23:40.851Z,24.07
2017-12-04T22:26:09.180Z,25.27
2017-12-04T22:28:38.231Z,23.67
2017-12-04T22:31:06.535Z,28.03
2017-12-04T22:33:34.878Z,22.50
2017-12-04T22:36:03.205Z,26.17
2017-12-04T22:38:31.520Z,24.73
2017-12-04T22:40:59.857Z,23.67
2017-12-04T22:43:28.188Z,24.37
2017-12-04T22:45:56.446Z,26.43
2017-12-04T22:48:24.734Z,25.57
2017-12-04T22:50:53.877Z,28.90
2017-12-04T22:53:23.666Z,25.70
2017-12-04T22:55:52.522Z,25.47
2017-12-04T22:58:20.790Z,25.27
2017-12-04T23:00:49.087Z,24.20
2017-12-04T23:03:17.398Z,22.30
2017-12-04T23:05:45.689Z,22.90
2017-12-04T23:08:14.015Z,21.43
2017-12-04T23:10:42.286Z,21.33
2017-12-04T23:13:12.105Z,23.00
2017-12-04T23:15:41.256Z,22.47
2017-12-04T23:18:09.564Z,21.13
2017-12-04T23:20:37.817Z,19.60
2017-12-04T23:23:06.258Z,21.30
2017-12-04T23:25:34.511Z,20.97
2017-12-04T23:28:02.791Z,19.30
2017-12-04T23:30:31.638Z,22.30
2017-12-04T23:33:00.709Z,21.50
2017-12-04T23:35:28.938Z,22.17
2017-12-04T23:37:58.324Z,21.03
2017-12-04T23:40:26.550Z,21.00
2017-12-04T23:42:54.832Z,23.57
2017-12-04T23:45:23.083Z,25.73
2017-12-04T23:47:51.380Z,21.13
2017-12-04T23:50:19.661Z,25.63
2017-12-04T23:52:47.899Z,23.17
2017-12-04T23:55:17.056Z,24.57
2017-12-04T23:57:45.308Z,23.37
